sensor_id;sensor_type;location;lat;lon;timestamp;P1;durP1;ratioP1;P2;durP2;ratioP2
9160;SDS011;4615;51.340;8.288;2022-07-06T00:02:11;2.67;;;1.80;;
9160;SDS011;4615;51.340;8.288;2022-07-06T00:04:38;3.60;;;1.80;;
9160;SDS011;4615;51.340;8.288;2022-07-06T00:07:04;2.77;;;2.00;;
9160;SDS011;4615;51.340;8.288;2022-07-06T00:09:31;2.23;;;1.90;;
9160;SDS011;4615;51.340;8.288;2022-07-06T00:11:57;3.30;;;1.83;;
9160;SDS011;4615;51.340;8.288;2022-07-06T00:14:25;2.67;;;1.90;;
9160;SDS011;4615;51.340;8.288;2022-07-06T00:16:51;3.37;;;1.90;;
9160;SDS011;4615;51.340;8.288;2022-07-06T00:19:18;4.90;;;2.03;;
9160;SDS011;4615;51.340;8.288;2022-07-06T00:21:44;3.77;;;2.00;;
9160;SDS011;4615;51.340;8.288;2022-07-06T00:24:10;5.17;;;2.00;;
9160;SDS011;4615;51.340;8.288;2022-07-06T00:26:37;6.03;;;2.27;;
9160;SDS011;4615;51.340;8.288;2022-07-06T00:29:03;2.63;;;1.90;;
9160;SDS011;4615;51.340;8.288;2022-07-06T00:31:31;1.87;;;1.57;;
9160;SDS011;4615;51.340;8.288;2022-07-06T00:33:58;2.60;;;1.87;;
9160;SDS011;4615;51.340;8.288;2022-07-06T00:36:24;2.37;;;1.80;;
9160;SDS011;4615;51.340;8.288;2022-07-06T00:38:50;4.13;;;2.37;;
9160;SDS011;4615;51.340;8.288;2022-07-06T00:41:17;4.87;;;2.13;;
9160;SDS011;4615;51.340;8.288;2022-07-06T00:43:47;4.30;;;1.70;;
9160;SDS011;4615;51.340;8.288;2022-07-06T00:46:13;5.60;;;1.90;;
9160;SDS011;4615;51.340;8.288;2022-07-06T00:48:41;4.13;;;1.97;;
9160;SDS011;4615;51.340;8.288;2022-07-06T00:51:08;3.03;;;2.20;;
9160;SDS011;4615;51.340;8.288;2022-07-06T00:53:34;4.13;;;2.10;;
9160;SDS011;4615;51.340;8.288;2022-07-06T00:56:01;5.30;;;2.07;;
9160;SDS011;4615;51.340;8.288;2022-07-06T00:58:27;6.97;;;1.90;;
9160;SDS011;4615;51.340;8.288;2022-07-06T01:00:54;4.63;;;2.20;;
9160;SDS011;4615;51.340;8.288;2022-07-06T01:03:20;4.37;;;1.70;;
9160;SDS011;4615;51.340;8.288;2022-07-06T01:05:48;3.57;;;1.83;;
9160;SDS011;4615;51.340;8.288;2022-07-06T01:08:16;4.43;;;2.30;;
9160;SDS011;4615;51.340;8.288;2022-07-06T01:10:43;3.37;;;2.10;;
9160;SDS011;4615;51.340;8.288;2022-07-06T01:13:09;4.80;;;2.17;;
9160;SDS011;4615;51.340;8.288;2022-07-06T01:15:36;3.80;;;1.90;;
9160;SDS011;4615;51.340;8.288;2022-07-06T01:18:02;5.13;;;2.13;;
9160;SDS011;4615;51.340;8.288;2022-07-06T01:20:30;4.13;;;2.40;;
9160;SDS011;4615;51.340;8.288;2022-07-06T01:22:58;3.97;;;2.30;;
9160;SDS011;4615;51.340;8.288;2022-07-06T01:25:25;4.03;;;1.90;;
9160;SDS011;4615;51.340;8.288;2022-07-06T01:27:51;2.37;;;1.80;;
9160;SDS011;4615;51.340;8.288;2022-07-06T01:30:18;7.20;;;2.13;;
9160;SDS011;4615;51.340;8.288;2022-07-06T01:32:45;4.27;;;2.00;;
9160;SDS011;4615;51.340;8.288;2022-07-06T01:35:12;4.07;;;2.17;;
9160;SDS011;4615;51.340;8.288;2022-07-06T01:37:40;2.33;;;1.90;;
9160;SDS011;4615;51.340;8.288;2022-07-06T01:40:08;3.07;;;2.00;;
9160;SDS011;4615;51.340;8.288;2022-07-06T01:42:34;5.10;;;2.30;;
9160;SDS011;4615;51.340;8.288;2022-07-06T01:45:02;4.27;;;2.30;;
9160;SDS011;4615;51.340;8.288;2022-07-06T01:47:28;4.20;;;2.00;;
9160;SDS011;4615;51.340;8.288;2022-07-06T01:49:57;3.40;;;2.13;;
9160;SDS011;4615;51.340;8.288;2022-07-06T01:52:24;3.17;;;2.13;;
9160;SDS011;4615;51.340;8.288;2022-07-06T01:54:51;3.00;;;2.33;;
9160;SDS011;4615;51.340;8.288;2022-07-06T01:57:18;4.17;;;2.30;;
9160;SDS011;4615;51.340;8.288;2022-07-06T01:59:44;3.17;;;2.00;;
9160;SDS011;4615;51.340;8.288;2022-07-06T02:02:10;4.90;;;2.13;;
9160;SDS011;4615;51.340;8.288;2022-07-06T02:04:37;4.00;;;2.10;;
9160;SDS011;4615;51.340;8.288;2022-07-06T02:07:03;4.43;;;2.10;;
9160;SDS011;4615;51.340;8.288;2022-07-06T02:09:30;4.03;;;2.10;;
9160;SDS011;4615;51.340;8.288;2022-07-06T02:11:58;5.67;;;2.33;;
9160;SDS011;4615;51.340;8.288;2022-07-06T02:14:24;5.20;;;2.50;;
9160;SDS011;4615;51.340;8.288;2022-07-06T02:16:50;4.87;;;2.30;;
9160;SDS011;4615;51.340;8.288;2022-07-06T02:19:17;5.10;;;2.17;;
9160;SDS011;4615;51.340;8.288;2022-07-06T02:21:43;5.03;;;2.50;;
9160;SDS011;4615;51.340;8.288;2022-07-06T02:24:10;3.73;;;2.17;;
9160;SDS011;4615;51.340;8.288;2022-07-06T02:26:36;3.50;;;2.27;;
9160;SDS011;4615;51.340;8.288;2022-07-06T02:29:04;4.43;;;2.27;;
9160;SDS011;4615;51.340;8.288;2022-07-06T02:31:30;2.83;;;2.00;;
9160;SDS011;4615;51.340;8.288;2022-07-06T02:33:56;3.20;;;2.47;;
9160;SDS011;4615;51.340;8.288;2022-07-06T02:36:23;3.47;;;2.40;;
9160;SDS011;4615;51.340;8.288;2022-07-06T02:38:49;3.33;;;2.03;;
9160;SDS011;4615;51.340;8.288;2022-07-06T02:41:16;4.27;;;2.07;;
9160;SDS011;4615;51.340;8.288;2022-07-06T02:43:42;3.50;;;2.40;;
9160;SDS011;4615;51.340;8.288;2022-07-06T02:46:10;3.50;;;2.50;;
9160;SDS011;4615;51.340;8.288;2022-07-06T02:48:37;6.13;;;2.60;;
9160;SDS011;4615;51.340;8.288;2022-07-06T02:51:03;3.37;;;2.30;;
9160;SDS011;4615;51.340;8.288;2022-07-06T02:53:29;3.10;;;2.30;;
9160;SDS011;4615;51.340;8.288;2022-07-06T02:55:56;4.17;;;2.40;;
9160;SDS011;4615;51.340;8.288;2022-07-06T02:58:22;5.07;;;2.40;;
9160;SDS011;4615;51.340;8.288;2022-07-06T03:00:49;4.00;;;2.50;;
9160;SDS011;4615;51.340;8.288;2022-07-06T03:03:16;3.10;;;2.20;;
9160;SDS011;4615;51.340;8.288;2022-07-06T03:05:43;5.03;;;2.40;;
9160;SDS011;4615;51.340;8.288;2022-07-06T03:08:11;4.20;;;2.47;;
9160;SDS011;4615;51.340;8.288;2022-07-06T03:10:38;2.27;;;2.07;;
9160;SDS011;4615;51.340;8.288;2022-07-06T03:13:04;2.97;;;1.90;;
9160;SDS011;4615;51.340;8.288;2022-07-06T03:15:31;4.73;;;2.30;;
9160;SDS011;4615;51.340;8.288;2022-07-06T03:17:57;3.13;;;2.13;;
9160;SDS011;4615;51.340;8.288;2022-07-06T03:20:25;2.53;;;2.10;;
9160;SDS011;4615;51.340;8.288;2022-07-06T03:22:51;4.80;;;2.70;;
9160;SDS011;4615;51.340;8.288;2022-07-06T03:25:17;3.97;;;1.90;;
9160;SDS011;4615;51.340;8.288;2022-07-06T03:27:44;3.07;;;2.00;;
9160;SDS011;4615;51.340;8.288;2022-07-06T03:30:11;3.67;;;2.33;;
9160;SDS011;4615;51.340;8.288;2022-07-06T03:32:39;3.77;;;2.07;;
9160;SDS011;4615;51.340;8.288;2022-07-06T03:35:05;4.33;;;2.20;;
9160;SDS011;4615;51.340;8.288;2022-07-06T03:37:33;3.70;;;2.33;;
9160;SDS011;4615;51.340;8.288;2022-07-06T03:39:59;4.53;;;2.47;;
9160;SDS011;4615;51.340;8.288;2022-07-06T03:42:26;5.47;;;2.00;;
9160;SDS011;4615;51.340;8.288;2022-07-06T03:44:52;4.13;;;2.10;;
9160;SDS011;4615;51.340;8.288;2022-07-06T03:47:19;3.77;;;2.17;;
9160;SDS011;4615;51.340;8.288;2022-07-06T03:49:45;3.37;;;2.10;;
9160;SDS011;4615;51.340;8.288;2022-07-06T03:52:11;4.20;;;2.20;;
9160;SDS011;4615;51.340;8.288;2022-07-06T03:54:39;3.23;;;2.00;;
9160;SDS011;4615;51.340;8.288;2022-07-06T03:57:06;3.93;;;2.20;;
9160;SDS011;4615;51.340;8.288;2022-07-06T03:59:32;3.50;;;2.60;;
9160;SDS011;4615;51.340;8.288;2022-07-06T04:01:58;4.17;;;2.30;;
9160;SDS011;4615;51.340;8.288;2022-07-06T04:04:25;5.37;;;2.67;;
9160;SDS011;4615;51.340;8.288;2022-07-06T04:06:51;3.40;;;2.30;;
9160;SDS011;4615;51.340;8.288;2022-07-06T04:09:18;2.67;;;2.37;;
9160;SDS011;4615;51.340;8.288;2022-07-06T04:11:45;4.23;;;2.70;;
9160;SDS011;4615;51.340;8.288;2022-07-06T04:14:12;6.37;;;3.27;;
9160;SDS011;4615;51.340;8.288;2022-07-06T04:16:38;4.87;;;2.37;;
9160;SDS011;4615;51.340;8.288;2022-07-06T04:19:05;5.47;;;3.00;;
9160;SDS011;4615;51.340;8.288;2022-07-06T04:21:31;3.67;;;2.37;;
9160;SDS011;4615;51.340;8.288;2022-07-06T04:23:57;3.87;;;2.60;;
9160;SDS011;4615;51.340;8.288;2022-07-06T04:26:24;3.47;;;2.97;;
9160;SDS011;4615;51.340;8.288;2022-07-06T04:28:52;3.30;;;2.40;;
9160;SDS011;4615;51.340;8.288;2022-07-06T04:31:18;5.33;;;2.70;;
9160;SDS011;4615;51.340;8.288;2022-07-06T04:33:44;5.67;;;3.43;;
9160;SDS011;4615;51.340;8.288;2022-07-06T04:36:11;5.47;;;3.00;;
9160;SDS011;4615;51.340;8.288;2022-07-06T04:38:37;5.83;;;3.30;;
9160;SDS011;4615;51.340;8.288;2022-07-06T04:41:04;6.40;;;3.30;;
9160;SDS011;4615;51.340;8.288;2022-07-06T04:43:30;5.17;;;2.87;;
9160;SDS011;4615;51.340;8.288;2022-07-06T04:45:58;6.50;;;3.13;;
9160;SDS011;4615;51.340;8.288;2022-07-06T04:48:26;3.87;;;2.90;;
9160;SDS011;4615;51.340;8.288;2022-07-06T04:50:52;4.57;;;3.03;;
9160;SDS011;4615;51.340;8.288;2022-07-06T04:53:18;7.23;;;3.10;;
9160;SDS011;4615;51.340;8.288;2022-07-06T04:55:45;4.33;;;3.40;;
9160;SDS011;4615;51.340;8.288;2022-07-06T04:58:11;7.83;;;3.67;;
9160;SDS011;4615;51.340;8.288;2022-07-06T05:00:37;4.57;;;3.43;;
9160;SDS011;4615;51.340;8.288;2022-07-06T05:03:05;5.70;;;3.20;;
9160;SDS011;4615;51.340;8.288;2022-07-06T05:05:32;6.10;;;3.10;;
9160;SDS011;4615;51.340;8.288;2022-07-06T05:07:58;5.73;;;2.90;;
9160;SDS011;4615;51.340;8.288;2022-07-06T05:10:24;5.80;;;3.20;;
9160;SDS011;4615;51.340;8.288;2022-07-06T05:12:51;6.37;;;3.37;;
9160;SDS011;4615;51.340;8.288;2022-07-06T05:15:17;3.90;;;3.40;;
9160;SDS011;4615;51.340;8.288;2022-07-06T05:17:44;6.20;;;3.17;;
9160;SDS011;4615;51.340;8.288;2022-07-06T05:20:11;5.10;;;4.60;;
9160;SDS011;4615;51.340;8.288;2022-07-06T05:22:38;4.30;;;3.87;;
9160;SDS011;4615;51.340;8.288;2022-07-06T05:25:05;4.80;;;3.83;;
9160;SDS011;4615;51.340;8.288;2022-07-06T05:27:31;6.10;;;3.50;;
9160;SDS011;4615;51.340;8.288;2022-07-06T05:29:57;4.23;;;3.20;;
9160;SDS011;4615;51.340;8.288;2022-07-06T05:32:24;5.33;;;3.47;;
9160;SDS011;4615;51.340;8.288;2022-07-06T05:34:50;5.57;;;3.30;;
9160;SDS011;4615;51.340;8.288;2022-07-06T05:37:18;4.20;;;2.97;;
9160;SDS011;4615;51.340;8.288;2022-07-06T05:39:45;6.20;;;2.67;;
9160;SDS011;4615;51.340;8.288;2022-07-06T05:42:12;3.47;;;2.90;;
9160;SDS011;4615;51.340;8.288;2022-07-06T05:44:38;6.07;;;2.80;;
9160;SDS011;4615;51.340;8.288;2022-07-06T05:47:05;4.17;;;2.70;;
9160;SDS011;4615;51.340;8.288;2022-07-06T05:49:49;4.00;;;3.17;;
9160;SDS011;4615;51.340;8.288;2022-07-06T05:52:34;7.17;;;3.20;;
9160;SDS011;4615;51.340;8.288;2022-07-06T05:55:00;6.50;;;3.47;;
9160;SDS011;4615;51.340;8.288;2022-07-06T05:57:27;3.60;;;3.30;;
9160;SDS011;4615;51.340;8.288;2022-07-06T05:59:53;5.60;;;3.40;;
9160;SDS011;4615;51.340;8.288;2022-07-06T06:02:20;5.37;;;3.10;;
9160;SDS011;4615;51.340;8.288;2022-07-06T06:04:46;7.37;;;3.67;;
9160;SDS011;4615;51.340;8.288;2022-07-06T06:07:12;7.13;;;3.43;;
9160;SDS011;4615;51.340;8.288;2022-07-06T06:09:40;9.83;;;3.30;;
9160;SDS011;4615;51.340;8.288;2022-07-06T06:12:07;5.70;;;2.80;;
9160;SDS011;4615;51.340;8.288;2022-07-06T06:14:33;7.83;;;3.10;;
9160;SDS011;4615;51.340;8.288;2022-07-06T06:17:00;4.47;;;2.90;;
9160;SDS011;4615;51.340;8.288;2022-07-06T06:19:26;5.07;;;2.50;;
9160;SDS011;4615;51.340;8.288;2022-07-06T06:21:53;6.87;;;2.87;;
9160;SDS011;4615;51.340;8.288;2022-07-06T06:24:19;4.10;;;2.90;;
9160;SDS011;4615;51.340;8.288;2022-07-06T06:26:47;3.57;;;2.73;;
9160;SDS011;4615;51.340;8.288;2022-07-06T06:29:13;4.40;;;3.00;;
9160;SDS011;4615;51.340;8.288;2022-07-06T06:31:40;5.13;;;3.00;;
9160;SDS011;4615;51.340;8.288;2022-07-06T06:34:06;4.47;;;3.00;;
9160;SDS011;4615;51.340;8.288;2022-07-06T06:36:32;4.63;;;2.90;;
9160;SDS011;4615;51.340;8.288;2022-07-06T06:38:59;4.43;;;2.30;;
9160;SDS011;4615;51.340;8.288;2022-07-06T06:41:26;4.00;;;2.40;;
9160;SDS011;4615;51.340;8.288;2022-07-06T06:43:54;4.43;;;2.10;;
9160;SDS011;4615;51.340;8.288;2022-07-06T06:46:21;5.17;;;2.17;;
9160;SDS011;4615;51.340;8.288;2022-07-06T06:48:47;3.40;;;2.30;;
9160;SDS011;4615;51.340;8.288;2022-07-06T06:51:14;4.63;;;2.30;;
9160;SDS011;4615;51.340;8.288;2022-07-06T06:53:40;3.43;;;2.23;;
9160;SDS011;4615;51.340;8.288;2022-07-06T06:56:07;4.83;;;2.63;;
9160;SDS011;4615;51.340;8.288;2022-07-06T06:58:33;5.60;;;2.70;;
9160;SDS011;4615;51.340;8.288;2022-07-06T07:01:01;5.20;;;2.47;;
9160;SDS011;4615;51.340;8.288;2022-07-06T07:03:27;2.53;;;2.10;;
9160;SDS011;4615;51.340;8.288;2022-07-06T07:05:54;5.27;;;2.40;;
9160;SDS011;4615;51.340;8.288;2022-07-06T07:08:20;4.50;;;2.00;;
9160;SDS011;4615;51.340;8.288;2022-07-06T07:10:47;2.80;;;1.73;;
9160;SDS011;4615;51.340;8.288;2022-07-06T07:13:13;4.27;;;2.30;;
9160;SDS011;4615;51.340;8.288;2022-07-06T07:15:39;3.00;;;2.20;;
9160;SDS011;4615;51.340;8.288;2022-07-06T07:18:07;4.73;;;2.20;;
9160;SDS011;4615;51.340;8.288;2022-07-06T07:20:34;4.37;;;1.90;;
9160;SDS011;4615;51.340;8.288;2022-07-06T07:23:00;2.03;;;1.70;;
9160;SDS011;4615;51.340;8.288;2022-07-06T07:25:27;4.07;;;1.67;;
9160;SDS011;4615;51.340;8.288;2022-07-06T07:27:53;1.93;;;1.60;;
9160;SDS011;4615;51.340;8.288;2022-07-06T07:30:20;3.07;;;1.60;;
9160;SDS011;4615;51.340;8.288;2022-07-06T07:32:46;4.17;;;1.67;;
9160;SDS011;4615;51.340;8.288;2022-07-06T07:35:14;5.27;;;1.70;;
9160;SDS011;4615;51.340;8.288;2022-07-06T07:37:41;2.90;;;1.33;;
9160;SDS011;4615;51.340;8.288;2022-07-06T07:40:07;2.83;;;1.57;;
9160;SDS011;4615;51.340;8.288;2022-07-06T07:42:34;1.60;;;1.20;;
9160;SDS011;4615;51.340;8.288;2022-07-06T07:45:04;4.33;;;1.70;;
9160;SDS011;4615;51.340;8.288;2022-07-06T07:47:31;4.00;;;1.60;;
9160;SDS011;4615;51.340;8.288;2022-07-06T07:49:57;4.73;;;1.70;;
9160;SDS011;4615;51.340;8.288;2022-07-06T07:52:25;2.70;;;1.70;;
9160;SDS011;4615;51.340;8.288;2022-07-06T07:54:51;3.20;;;1.40;;
9160;SDS011;4615;51.340;8.288;2022-07-06T07:57:18;1.50;;;1.40;;
9160;SDS011;4615;51.340;8.288;2022-07-06T07:59:44;1.50;;;1.10;;
9160;SDS011;4615;51.340;8.288;2022-07-06T08:02:10;2.73;;;1.10;;
9160;SDS011;4615;51.340;8.288;2022-07-06T08:04:37;2.83;;;1.40;;
9160;SDS011;4615;51.340;8.288;2022-07-06T08:07:03;2.07;;;1.10;;
9160;SDS011;4615;51.340;8.288;2022-07-06T08:09:31;1.33;;;1.10;;
9160;SDS011;4615;51.340;8.288;2022-07-06T08:11:57;2.33;;;1.33;;
9160;SDS011;4615;51.340;8.288;2022-07-06T08:14:24;2.00;;;1.17;;
9160;SDS011;4615;51.340;8.288;2022-07-06T08:16:50;1.73;;;1.10;;
9160;SDS011;4615;51.340;8.288;2022-07-06T08:19:17;3.40;;;1.37;;
9160;SDS011;4615;51.340;8.288;2022-07-06T08:21:43;3.80;;;1.40;;
9160;SDS011;4615;51.340;8.288;2022-07-06T08:24:10;3.03;;;1.43;;
9160;SDS011;4615;51.340;8.288;2022-07-06T08:26:38;3.00;;;1.30;;
9160;SDS011;4615;51.340;8.288;2022-07-06T08:29:04;1.80;;;1.33;;
9160;SDS011;4615;51.340;8.288;2022-07-06T08:31:31;2.63;;;1.60;;
9160;SDS011;4615;51.340;8.288;2022-07-06T08:33:59;4.57;;;1.57;;
9160;SDS011;4615;51.340;8.288;2022-07-06T08:36:26;1.83;;;1.40;;
9160;SDS011;4615;51.340;8.288;2022-07-06T08:38:52;4.30;;;1.53;;
9160;SDS011;4615;51.340;8.288;2022-07-06T08:41:21;4.63;;;1.80;;
9160;SDS011;4615;51.340;8.288;2022-07-06T08:43:49;3.13;;;1.43;;
9160;SDS011;4615;51.340;8.288;2022-07-06T08:46:16;4.17;;;1.60;;
9160;SDS011;4615;51.340;8.288;2022-07-06T08:48:42;1.93;;;1.40;;
9160;SDS011;4615;51.340;8.288;2022-07-06T08:51:09;2.73;;;1.30;;
9160;SDS011;4615;51.340;8.288;2022-07-06T08:53:35;2.90;;;1.70;;
9160;SDS011;4615;51.340;8.288;2022-07-06T08:56:02;2.77;;;1.40;;
9160;SDS011;4615;51.340;8.288;2022-07-06T08:58:29;2.73;;;1.30;;
9160;SDS011;4615;51.340;8.288;2022-07-06T09:00:58;3.00;;;1.37;;
9160;SDS011;4615;51.340;8.288;2022-07-06T09:03:25;3.57;;;1.37;;
9160;SDS011;4615;51.340;8.288;2022-07-06T09:05:51;3.33;;;1.57;;
9160;SDS011;4615;51.340;8.288;2022-07-06T09:08:18;2.50;;;1.47;;
9160;SDS011;4615;51.340;8.288;2022-07-06T09:10:44;2.83;;;1.30;;
9160;SDS011;4615;51.340;8.288;2022-07-06T09:13:11;2.10;;;1.30;;
9160;SDS011;4615;51.340;8.288;2022-07-06T09:15:37;2.60;;;1.50;;
9160;SDS011;4615;51.340;8.288;2022-07-06T09:18:06;2.43;;;1.20;;
9160;SDS011;4615;51.340;8.288;2022-07-06T09:20:32;2.87;;;1.40;;
9160;SDS011;4615;51.340;8.288;2022-07-06T09:22:59;5.03;;;1.50;;
9160;SDS011;4615;51.340;8.288;2022-07-06T09:25:26;3.17;;;1.40;;
9160;SDS011;4615;51.340;8.288;2022-07-06T09:27:53;3.47;;;1.47;;
9160;SDS011;4615;51.340;8.288;2022-07-06T09:30:20;3.43;;;1.33;;
9160;SDS011;4615;51.340;8.288;2022-07-06T09:32:48;5.67;;;1.50;;
9160;SDS011;4615;51.340;8.288;2022-07-06T09:35:20;4.17;;;1.47;;
9160;SDS011;4615;51.340;8.288;2022-07-06T09:37:47;4.30;;;1.50;;
9160;SDS011;4615;51.340;8.288;2022-07-06T09:40:25;4.80;;;1.70;;
9160;SDS011;4615;51.340;8.288;2022-07-06T09:42:51;2.53;;;1.30;;
9160;SDS011;4615;51.340;8.288;2022-07-06T09:45:33;2.80;;;1.30;;
9160;SDS011;4615;51.340;8.288;2022-07-06T09:48:04;2.93;;;1.23;;
9160;SDS011;4615;51.340;8.288;2022-07-06T09:50:34;1.80;;;1.03;;
9160;SDS011;4615;51.340;8.288;2022-07-06T09:53:04;4.00;;;1.47;;
9160;SDS011;4615;51.340;8.288;2022-07-06T09:55:31;1.07;;;1.00;;
9160;SDS011;4615;51.340;8.288;2022-07-06T09:57:57;2.23;;;1.20;;
9160;SDS011;4615;51.340;8.288;2022-07-06T10:00:24;2.53;;;1.27;;
9160;SDS011;4615;51.340;8.288;2022-07-06T10:02:50;3.60;;;1.20;;
9160;SDS011;4615;51.340;8.288;2022-07-06T10:05:17;2.23;;;0.90;;
9160;SDS011;4615;51.340;8.288;2022-07-06T10:07:46;4.53;;;1.20;;
9160;SDS011;4615;51.340;8.288;2022-07-06T10:10:14;1.97;;;1.40;;
9160;SDS011;4615;51.340;8.288;2022-07-06T10:12:42;1.50;;;1.17;;
9160;SDS011;4615;51.340;8.288;2022-07-06T10:15:10;1.93;;;1.00;;
9160;SDS011;4615;51.340;8.288;2022-07-06T10:17:36;1.57;;;1.20;;
9160;SDS011;4615;51.340;8.288;2022-07-06T10:20:04;2.70;;;1.23;;
9160;SDS011;4615;51.340;8.288;2022-07-06T10:22:31;3.43;;;1.10;;
9160;SDS011;4615;51.340;8.288;2022-07-06T10:24:59;3.57;;;1.27;;
9160;SDS011;4615;51.340;8.288;2022-07-06T10:27:26;1.73;;;0.97;;
9160;SDS011;4615;51.340;8.288;2022-07-06T10:29:53;2.40;;;1.00;;
9160;SDS011;4615;51.340;8.288;2022-07-06T10:32:19;6.53;;;1.00;;
9160;SDS011;4615;51.340;8.288;2022-07-06T10:34:47;3.37;;;1.20;;
9160;SDS011;4615;51.340;8.288;2022-07-06T10:37:20;3.53;;;1.00;;
9160;SDS011;4615;51.340;8.288;2022-07-06T10:39:47;2.50;;;1.00;;
9160;SDS011;4615;51.340;8.288;2022-07-06T10:42:45;1.73;;;1.03;;
9160;SDS011;4615;51.340;8.288;2022-07-06T10:45:15;4.10;;;1.00;;
9160;SDS011;4615;51.340;8.288;2022-07-06T10:47:45;1.87;;;1.03;;
9160;SDS011;4615;51.340;8.288;2022-07-06T10:50:11;2.27;;;1.27;;
9160;SDS011;4615;51.340;8.288;2022-07-06T10:52:47;2.13;;;0.97;;
9160;SDS011;4615;51.340;8.288;2022-07-06T10:55:27;2.20;;;1.30;;
9160;SDS011;4615;51.340;8.288;2022-07-06T10:57:55;2.73;;;1.20;;
9160;SDS011;4615;51.340;8.288;2022-07-06T11:00:21;2.43;;;1.10;;
9160;SDS011;4615;51.340;8.288;2022-07-06T11:02:48;1.33;;;1.10;;
9160;SDS011;4615;51.340;8.288;2022-07-06T11:07:56;2.97;;;1.17;;
9160;SDS011;4615;51.340;8.288;2022-07-06T11:10:27;1.87;;;1.20;;
9160;SDS011;4615;51.340;8.288;2022-07-06T11:12:59;2.07;;;1.20;;
9160;SDS011;4615;51.340;8.288;2022-07-06T11:18:10;4.43;;;1.40;;
9160;SDS011;4615;51.340;8.288;2022-07-06T11:20:37;2.57;;;1.20;;
9160;SDS011;4615;51.340;8.288;2022-07-06T11:23:04;5.00;;;1.17;;
9160;SDS011;4615;51.340;8.288;2022-07-06T11:25:32;3.67;;;1.53;;
9160;SDS011;4615;51.340;8.288;2022-07-06T11:28:00;3.80;;;1.10;;
9160;SDS011;4615;51.340;8.288;2022-07-06T11:30:27;5.27;;;1.60;;
9160;SDS011;4615;51.340;8.288;2022-07-06T11:32:53;2.30;;;1.30;;
9160;SDS011;4615;51.340;8.288;2022-07-06T11:35:20;2.50;;;1.30;;
9160;SDS011;4615;51.340;8.288;2022-07-06T11:37:47;6.33;;;1.47;;
9160;SDS011;4615;51.340;8.288;2022-07-06T11:40:14;2.47;;;1.20;;
9160;SDS011;4615;51.340;8.288;2022-07-06T11:42:52;2.73;;;1.30;;
9160;SDS011;4615;51.340;8.288;2022-07-06T11:45:26;2.70;;;1.43;;
9160;SDS011;4615;51.340;8.288;2022-07-06T11:50:34;4.53;;;1.30;;
9160;SDS011;4615;51.340;8.288;2022-07-06T11:53:00;6.50;;;1.47;;
9160;SDS011;4615;51.340;8.288;2022-07-06T11:55:28;2.57;;;1.30;;
9160;SDS011;4615;51.340;8.288;2022-07-06T11:57:54;2.50;;;1.30;;
9160;SDS011;4615;51.340;8.288;2022-07-06T12:00:22;2.43;;;1.20;;
9160;SDS011;4615;51.340;8.288;2022-07-06T12:02:59;4.60;;;1.43;;
9160;SDS011;4615;51.340;8.288;2022-07-06T12:05:29;2.63;;;1.27;;
9160;SDS011;4615;51.340;8.288;2022-07-06T12:08:03;2.57;;;1.20;;
9160;SDS011;4615;51.340;8.288;2022-07-06T12:10:32;1.10;;;1.00;;
9160;SDS011;4615;51.340;8.288;2022-07-06T12:13:02;4.17;;;1.40;;
9160;SDS011;4615;51.340;8.288;2022-07-06T12:15:28;1.80;;;1.10;;
9160;SDS011;4615;51.340;8.288;2022-07-06T12:17:55;2.30;;;1.03;;
9160;SDS011;4615;51.340;8.288;2022-07-06T12:20:22;3.23;;;1.40;;
9160;SDS011;4615;51.340;8.288;2022-07-06T12:23:00;2.17;;;0.87;;
9160;SDS011;4615;51.340;8.288;2022-07-06T12:25:29;2.43;;;1.20;;
9160;SDS011;4615;51.340;8.288;2022-07-06T12:27:56;2.60;;;1.10;;
9160;SDS011;4615;51.340;8.288;2022-07-06T12:30:22;1.23;;;1.03;;
9160;SDS011;4615;51.340;8.288;2022-07-06T12:35:31;1.97;;;1.37;;
9160;SDS011;4615;51.340;8.288;2022-07-06T12:37:58;2.63;;;1.40;;
9160;SDS011;4615;51.340;8.288;2022-07-06T12:40:25;1.73;;;1.00;;
9160;SDS011;4615;51.340;8.288;2022-07-06T12:42:52;2.50;;;1.00;;
9160;SDS011;4615;51.340;8.288;2022-07-06T12:45:18;2.30;;;1.20;;
9160;SDS011;4615;51.340;8.288;2022-07-06T12:47:56;1.90;;;1.10;;
9160;SDS011;4615;51.340;8.288;2022-07-06T12:50:29;2.43;;;1.17;;
9160;SDS011;4615;51.340;8.288;2022-07-06T12:52:57;3.83;;;1.43;;
9160;SDS011;4615;51.340;8.288;2022-07-06T12:55:25;5.40;;;1.23;;
9160;SDS011;4615;51.340;8.288;2022-07-06T12:57:52;4.67;;;1.10;;
9160;SDS011;4615;51.340;8.288;2022-07-06T13:00:18;3.80;;;1.40;;
9160;SDS011;4615;51.340;8.288;2022-07-06T13:02:50;3.37;;;1.20;;
9160;SDS011;4615;51.340;8.288;2022-07-06T13:05:21;4.67;;;2.07;;
9160;SDS011;4615;51.340;8.288;2022-07-06T13:07:52;2.80;;;1.40;;
9160;SDS011;4615;51.340;8.288;2022-07-06T13:10:20;3.10;;;1.10;;
9160;SDS011;4615;51.340;8.288;2022-07-06T13:12:47;1.70;;;0.90;;
9160;SDS011;4615;51.340;8.288;2022-07-06T13:15:13;1.97;;;1.13;;
9160;SDS011;4615;51.340;8.288;2022-07-06T13:17:40;2.40;;;0.93;;
9160;SDS011;4615;51.340;8.288;2022-07-06T13:20:08;1.87;;;1.20;;
9160;SDS011;4615;51.340;8.288;2022-07-06T13:22:35;2.20;;;1.30;;
9160;SDS011;4615;51.340;8.288;2022-07-06T13:25:02;3.43;;;1.17;;
9160;SDS011;4615;51.340;8.288;2022-07-06T13:27:30;3.13;;;1.00;;
9160;SDS011;4615;51.340;8.288;2022-07-06T13:29:56;4.00;;;1.40;;
9160;SDS011;4615;51.340;8.288;2022-07-06T13:32:23;6.83;;;2.80;;
9160;SDS011;4615;51.340;8.288;2022-07-06T13:34:49;1.50;;;1.00;;
9160;SDS011;4615;51.340;8.288;2022-07-06T13:37:16;2.40;;;1.13;;
9160;SDS011;4615;51.340;8.288;2022-07-06T13:39:42;1.70;;;1.50;;
9160;SDS011;4615;51.340;8.288;2022-07-06T13:42:09;3.47;;;1.27;;
9160;SDS011;4615;51.340;8.288;2022-07-06T13:44:37;5.77;;;1.53;;
9160;SDS011;4615;51.340;8.288;2022-07-06T13:47:04;2.77;;;1.10;;
9160;SDS011;4615;51.340;8.288;2022-07-06T13:49:31;2.17;;;1.10;;
9160;SDS011;4615;51.340;8.288;2022-07-06T13:51:57;4.07;;;1.67;;
9160;SDS011;4615;51.340;8.288;2022-07-06T13:54:28;1.90;;;1.33;;
9160;SDS011;4615;51.340;8.288;2022-07-06T13:56:54;3.37;;;1.30;;
9160;SDS011;4615;51.340;8.288;2022-07-06T13:59:21;3.53;;;1.03;;
9160;SDS011;4615;51.340;8.288;2022-07-06T14:01:49;2.70;;;1.20;;
9160;SDS011;4615;51.340;8.288;2022-07-06T14:04:15;1.83;;;1.10;;
9160;SDS011;4615;51.340;8.288;2022-07-06T14:06:41;3.70;;;1.40;;
9160;SDS011;4615;51.340;8.288;2022-07-06T14:09:08;1.23;;;1.10;;
9160;SDS011;4615;51.340;8.288;2022-07-06T14:11:35;1.73;;;1.43;;
9160;SDS011;4615;51.340;8.288;2022-07-06T14:14:02;3.77;;;1.27;;
9160;SDS011;4615;51.340;8.288;2022-07-06T14:16:28;3.03;;;1.33;;
9160;SDS011;4615;51.340;8.288;2022-07-06T14:18:56;2.07;;;1.10;;
9160;SDS011;4615;51.340;8.288;2022-07-06T14:21:22;2.07;;;1.13;;
9160;SDS011;4615;51.340;8.288;2022-07-06T14:23:49;3.30;;;1.13;;
9160;SDS011;4615;51.340;8.288;2022-07-06T14:26:15;2.07;;;0.93;;
9160;SDS011;4615;51.340;8.288;2022-07-06T14:28:42;2.47;;;1.27;;
9160;SDS011;4615;51.340;8.288;2022-07-06T14:31:11;3.50;;;1.87;;
9160;SDS011;4615;51.340;8.288;2022-07-06T14:33:37;3.30;;;1.53;;
9160;SDS011;4615;51.340;8.288;2022-07-06T14:36:06;3.90;;;1.70;;
9160;SDS011;4615;51.340;8.288;2022-07-06T14:38:32;2.80;;;1.30;;
9160;SDS011;4615;51.340;8.288;2022-07-06T14:40:59;4.40;;;1.57;;
9160;SDS011;4615;51.340;8.288;2022-07-06T14:43:25;1.63;;;1.03;;
9160;SDS011;4615;51.340;8.288;2022-07-06T14:45:52;1.27;;;0.90;;
9160;SDS011;4615;51.340;8.288;2022-07-06T14:48:18;2.23;;;1.00;;
9160;SDS011;4615;51.340;8.288;2022-07-06T14:50:45;2.67;;;1.20;;
9160;SDS011;4615;51.340;8.288;2022-07-06T14:53:13;1.37;;;1.10;;
9160;SDS011;4615;51.340;8.288;2022-07-06T14:55:39;1.43;;;1.00;;
9160;SDS011;4615;51.340;8.288;2022-07-06T14:58:06;3.97;;;1.20;;
9160;SDS011;4615;51.340;8.288;2022-07-06T15:00:32;1.20;;;1.10;;
9160;SDS011;4615;51.340;8.288;2022-07-06T15:02:59;2.40;;;1.00;;
9160;SDS011;4615;51.340;8.288;2022-07-06T15:05:25;1.90;;;1.00;;
9160;SDS011;4615;51.340;8.288;2022-07-06T15:07:51;2.57;;;1.20;;
9160;SDS011;4615;51.340;8.288;2022-07-06T15:10:19;1.80;;;1.10;;
9160;SDS011;4615;51.340;8.288;2022-07-06T15:12:46;1.77;;;0.90;;
9160;SDS011;4615;51.340;8.288;2022-07-06T15:15:13;2.37;;;1.33;;
9160;SDS011;4615;51.340;8.288;2022-07-06T15:17:39;5.53;;;1.00;;
9160;SDS011;4615;51.340;8.288;2022-07-06T15:20:06;2.37;;;1.10;;
9160;SDS011;4615;51.340;8.288;2022-07-06T15:22:32;2.07;;;1.00;;
9160;SDS011;4615;51.340;8.288;2022-07-06T15:25:00;2.13;;;1.10;;
9160;SDS011;4615;51.340;8.288;2022-07-06T15:27:28;3.50;;;1.13;;